Time;durP1;ratioP1;P1;durP2;ratioP2;P2;SDS_P1;SDS_P2;PMS_P1;PMS_P2;Temp;Humidity;BMP_temperature;BMP_pressure;BME280_temperature;BME280_humidity;BME280_pressure;Samples;Min_cycle;Max_cycle;Signal;HPM_P1;HPM_P2
2022/05/31 00:01:25;;;;;;;3.47;2.20;;;;;;;;;;5046138;28;20425;-68
2022/05/31 00:03:51;;;;;;;5.25;2.65;;;;;;;;;;5031049;28;20550;-68
2022/05/31 00:06:18;;;;;;;3.85;2.72;;;;;;;;;;5032473;28;20543;-67
2022/05/31 00:08:45;;;;;;;2.47;2.28;;;;;;;;;;5032459;28;20084;-67
2022/05/31 00:11:12;;;;;;;3.95;2.40;;;;;;;;;;5031870;28;20048;-67
2022/05/31 00:13:39;;;;;;;4.47;2.30;;;;;;;;;;5031939;28;20053;-67
2022/05/31 00:16:06;;;;;;;2.92;2.45;;;;;;;;;;5032322;28;20045;-67
2022/05/31 00:18:32;;;;;;;2.72;2.40;;;;;;;;;;5030779;28;20053;-67
2022/05/31 00:20:59;;;;;;;2.50;2.30;;;;;;;;;;5048571;28;20262;-67
2022/05/31 00:23:26;;;;;;;3.47;2.35;;;;;;;;;;5051912;28;20456;-68
2022/05/31 00:25:52;;;;;;;3.92;2.42;;;;;;;;;;5051072;28;20059;-67
2022/05/31 00:28:19;;;;;;;3.22;2.33;;;;;;;;;;5050887;28;20060;-69
2022/05/31 00:30:46;;;;;;;3.25;2.50;;;;;;;;;;5050541;28;20049;-67
2022/05/31 00:33:13;;;;;;;2.95;2.42;;;;;;;;;;5031862;28;20121;-68
2022/05/31 00:35:43;;;;;;;2.95;2.65;;;;;;;;;;5030508;28;20512;-68
2022/05/31 00:38:09;;;;;;;2.45;2.25;;;;;;;;;;5014700;28;20056;-68
2022/05/31 00:40:37;;;;;;;3.60;2.75;;;;;;;;;;5030260;28;20113;-68
2022/05/31 00:43:10;;;;;;;3.42;2.33;;;;;;;;;;5014006;28;20057;-68
2022/05/31 00:45:46;;;;;;;2.50;2.25;;;;;;;;;;5014888;28;20053;-68
2022/05/31 00:48:16;;;;;;;3.38;2.38;;;;;;;;;;5030389;28;20049;-68
2022/05/31 00:50:46;;;;;;;2.83;2.33;;;;;;;;;;5014180;28;20397;-68
2022/05/31 00:53:16;;;;;;;2.47;2.28;;;;;;;;;;5014306;28;20050;-68
2022/05/31 00:55:52;;;;;;;2.60;2.35;;;;;;;;;;5030378;28;20092;-68
2022/05/31 00:58:34;;;;;;;2.70;2.20;;;;;;;;;;5035567;28;20411;-68
2022/05/31 01:01:06;;;;;;;2.67;2.37;;;;;;;;;;5026302;28;20480;-68
2022/05/31 01:03:35;;;;;;;2.55;2.35;;;;;;;;;;5019075;28;20206;-68
2022/05/31 01:06:01;;;;;;;5.70;2.42;;;;;;;;;;5044505;28;20045;-68
2022/05/31 01:08:28;;;;;;;3.15;2.47;;;;;;;;;;5042328;28;20053;-68
2022/05/31 01:10:55;;;;;;;2.78;2.35;;;;;;;;;;5039246;28;20464;-68
2022/05/31 01:13:22;;;;;;;3.42;2.33;;;;;;;;;;5045615;28;20107;-68
2022/05/31 01:15:50;;;;;;;4.35;2.75;;;;;;;;;;5043852;28;20053;-67
2022/05/31 01:18:16;;;;;;;5.03;3.00;;;;;;;;;;5050013;28;20463;-67
2022/05/31 01:20:43;;;;;;;7.05;3.42;;;;;;;;;;5050092;28;20048;-67
2022/05/31 01:23:14;;;;;;;6.80;2.83;;;;;;;;;;5050343;28;20059;-68
2022/05/31 01:26:06;;;;;;;3.03;2.60;;;;;;;;;;5033672;28;20060;-68
2022/05/31 01:28:51;;;;;;;3.70;3.00;;;;;;;;;;5022008;28;20056;-68
2022/05/31 01:31:29;;;;;;;5.22;2.90;;;;;;;;;;5051158;28;20053;-68
2022/05/31 01:34:30;;;;;;;3.35;2.63;;;;;;;;;;5049993;28;20060;-68
2022/05/31 01:36:57;;;;;;;3.53;2.53;;;;;;;;;;5025900;28;20080;-69
2022/05/31 01:39:43;;;;;;;3.55;2.83;;;;;;;;;;5048446;28;20102;-68
2022/05/31 01:42:42;;;;;;;2.60;2.15;;;;;;;;;;5049926;28;20503;-68
2022/05/31 01:45:17;;;;;;;3.08;2.30;;;;;;;;;;5049799;28;20048;-68
2022/05/31 01:47:44;;;;;;;2.33;2.00;;;;;;;;;;5030248;28;20053;-68
2022/05/31 01:50:13;;;;;;;3.42;2.45;;;;;;;;;;5029770;28;20053;-68
2022/05/31 01:52:40;;;;;;;2.83;2.30;;;;;;;;;;5039066;28;20057;-68
2022/05/31 01:55:07;;;;;;;3.25;2.67;;;;;;;;;;5033662;28;20052;-67
2022/05/31 01:57:33;;;;;;;4.13;2.30;;;;;;;;;;5036838;28;20466;-68
2022/05/31 02:00:12;;;;;;;5.13;3.00;;;;;;;;;;5053485;28;20060;-67
2022/05/31 02:02:38;;;;;;;3.70;2.47;;;;;;;;;;5038120;28;20041;-67
2022/05/31 02:05:05;;;;;;;4.10;2.60;;;;;;;;;;5036364;28;20061;-68
2022/05/31 02:07:32;;;;;;;3.38;2.30;;;;;;;;;;5036728;28;20507;-68
2022/05/31 02:09:59;;;;;;;4.10;2.42;;;;;;;;;;5034645;28;20049;-68
2022/05/31 02:12:32;;;;;;;2.50;2.30;;;;;;;;;;5017595;28;20049;-67
2022/05/31 02:14:59;;;;;;;2.85;2.40;;;;;;;;;;5016810;28;20060;-67
2022/05/31 02:17:26;;;;;;;3.50;3.20;;;;;;;;;;5034867;28;20059;-67
2022/05/31 02:19:52;;;;;;;3.65;2.33;;;;;;;;;;5034195;28;20049;-68
2022/05/31 02:22:22;;;;;;;3.25;2.75;;;;;;;;;;5034029;28;20455;-67
2022/05/31 02:24:49;;;;;;;2.92;2.65;;;;;;;;;;5034222;28;20049;-68
2022/05/31 02:27:16;;;;;;;3.15;2.40;;;;;;;;;;5034553;28;20045;-68
2022/05/31 02:29:43;;;;;;;4.07;2.28;;;;;;;;;;5016768;28;20049;-68
2022/05/31 02:32:11;;;;;;;3.95;2.92;;;;;;;;;;5034129;28;20056;-68
2022/05/31 02:34:41;;;;;;;2.65;2.28;;;;;;;;;;5032856;28;20049;-68
2022/05/31 02:37:08;;;;;;;3.70;2.63;;;;;;;;;;5017606;28;20049;-68
2022/05/31 02:39:35;;;;;;;3.40;2.63;;;;;;;;;;5053051;28;20435;-67
2022/05/31 02:42:39;;;;;;;4.28;2.60;;;;;;;;;;5052381;28;20107;-68
2022/05/31 02:45:08;;;;;;;6.18;3.08;;;;;;;;;;5052499;28;20053;-68
2022/05/31 02:47:37;;;;;;;4.50;2.50;;;;;;;;;;5052639;28;20510;-68
2022/05/31 02:50:05;;;;;;;6.85;3.35;;;;;;;;;;5053842;28;20106;-68
2022/05/31 02:52:32;;;;;;;4.43;2.80;;;;;;;;;;5053745;28;20055;-67
2022/05/31 02:54:59;;;;;;;3.30;2.85;;;;;;;;;;5053964;28;20381;-67
2022/05/31 02:57:25;;;;;;;3.78;2.97;;;;;;;;;;5052826;28;20053;-67
2022/05/31 02:59:52;;;;;;;5.30;3.00;;;;;;;;;;5053241;28;20044;-67
2022/05/31 03:02:19;;;;;;;3.88;2.75;;;;;;;;;;5051998;28;20045;-67
2022/05/31 03:04:45;;;;;;;4.07;2.70;;;;;;;;;;5053307;28;20045;-68
2022/05/31 03:07:12;;;;;;;4.53;2.70;;;;;;;;;;5052932;28;20103;-67
2022/05/31 03:09:38;;;;;;;3.40;3.10;;;;;;;;;;5053232;28;20515;-68
2022/05/31 03:12:09;;;;;;;5.05;2.88;;;;;;;;;;5053180;28;20049;-67
2022/05/31 03:14:54;;;;;;;4.00;2.90;;;;;;;;;;5051822;28;20060;-68
2022/05/31 03:17:47;;;;;;;4.32;2.63;;;;;;;;;;5051792;28;20071;-67
2022/05/31 03:20:17;;;;;;;3.30;2.88;;;;;;;;;;5048377;28;20138;-67
2022/05/31 03:22:46;;;;;;;6.45;3.42;;;;;;;;;;5052730;28;20098;-68
2022/05/31 03:25:21;;;;;;;3.45;2.80;;;;;;;;;;5039163;28;20050;-68
2022/05/31 03:27:48;;;;;;;3.78;2.75;;;;;;;;;;5015509;28;20416;-68
2022/05/31 03:30:14;;;;;;;5.43;3.22;;;;;;;;;;5031590;28;20057;-67
2022/05/31 03:32:41;;;;;;;5.22;2.92;;;;;;;;;;5015294;28;20049;-67
2022/05/31 03:35:08;;;;;;;3.97;2.83;;;;;;;;;;5026492;28;20052;-67
2022/05/31 03:37:34;;;;;;;3.30;2.97;;;;;;;;;;5051354;28;20053;-67
2022/05/31 03:40:02;;;;;;;5.03;2.80;;;;;;;;;;5034851;28;20052;-67
2022/05/31 03:42:28;;;;;;;3.63;2.80;;;;;;;;;;5051265;28;20041;-67
2022/05/31 03:44:55;;;;;;;3.70;3.08;;;;;;;;;;5052807;28;20095;-67
2022/05/31 03:47:22;;;;;;;3.13;2.80;;;;;;;;;;5052975;28;20479;-68
2022/05/31 03:49:48;;;;;;;4.22;3.28;;;;;;;;;;5051314;28;20079;-68
2022/05/31 03:52:15;;;;;;;5.47;3.28;;;;;;;;;;5052066;28;20091;-67
2022/05/31 03:54:42;;;;;;;3.65;3.33;;;;;;;;;;5051013;28;20111;-68
2022/05/31 03:57:16;;;;;;;4.85;3.45;;;;;;;;;;5052335;28;20518;-67
2022/05/31 03:59:43;;;;;;;3.65;3.33;;;;;;;;;;5035060;28;20496;-68
2022/05/31 04:02:09;;;;;;;5.05;3.33;;;;;;;;;;5050734;28;20052;-67
2022/05/31 04:04:36;;;;;;;3.40;2.92;;;;;;;;;;5052182;28;20045;-67
2022/05/31 04:07:03;;;;;;;4.63;3.42;;;;;;;;;;5051952;28;20053;-68
2022/05/31 04:09:30;;;;;;;3.40;3.00;;;;;;;;;;5053333;28;20056;-68
2022/05/31 04:11:58;;;;;;;3.45;2.92;;;;;;;;;;5053097;28;20075;-67
2022/05/31 04:14:25;;;;;;;3.90;3.17;;;;;;;;;;5053981;28;20458;-67
2022/05/31 04:16:52;;;;;;;4.47;3.30;;;;;;;;;;5052605;28;20496;-66
2022/05/31 04:19:19;;;;;;;3.05;2.53;;;;;;;;;;5053398;28;20131;-67
2022/05/31 04:21:46;;;;;;;3.45;3.00;;;;;;;;;;5053567;28;20484;-67
2022/05/31 04:24:16;;;;;;;4.22;2.97;;;;;;;;;;5052542;28;20418;-67
2022/05/31 04:26:45;;;;;;;3.55;3.25;;;;;;;;;;5053810;28;20045;-68
2022/05/31 04:29:12;;;;;;;3.00;2.72;;;;;;;;;;5036138;28;20049;-67
2022/05/31 04:31:39;;;;;;;6.38;3.10;;;;;;;;;;5052705;28;20045;-67
2022/05/31 04:34:07;;;;;;;5.60;3.42;;;;;;;;;;5052250;28;20434;-67
2022/05/31 04:36:36;;;;;;;3.78;3.03;;;;;;;;;;5040003;28;20095;-67
2022/05/31 04:39:06;;;;;;;3.25;2.95;;;;;;;;;;5031653;28;20132;-72
2022/05/31 04:41:35;;;;;;;6.03;3.25;;;;;;;;;;5021272;28;20473;-69
2022/05/31 04:44:04;;;;;;;3.80;3.00;;;;;;;;;;5039626;28;20049;-70
2022/05/31 04:46:32;;;;;;;3.92;3.10;;;;;;;;;;5023273;28;20495;-69
2022/05/31 04:49:02;;;;;;;6.10;3.03;;;;;;;;;;5023655;28;20045;-69
2022/05/31 04:51:32;;;;;;;4.93;3.25;;;;;;;;;;5038428;28;20045;-70
2022/05/31 04:54:00;;;;;;;3.72;3.30;;;;;;;;;;5035808;28;20053;-67
2022/05/31 04:56:27;;;;;;;5.18;3.08;;;;;;;;;;5034595;28;20049;-67
2022/05/31 04:58:55;;;;;;;3.17;2.70;;;;;;;;;;5033294;28;20103;-67
2022/05/31 05:01:23;;;;;;;3.28;2.78;;;;;;;;;;5033860;28;20049;-69
2022/05/31 05:03:51;;;;;;;4.72;2.95;;;;;;;;;;5001399;28;20291;-68
2022/05/31 05:06:19;;;;;;;3.90;3.05;;;;;;;;;;5033077;28;20053;-67
2022/05/31 05:08:50;;;;;;;4.63;3.47;;;;;;;;;;5039799;28;20049;-68
2022/05/31 05:11:21;;;;;;;4.45;3.17;;;;;;;;;;5051411;28;20053;-68
2022/05/31 05:13:49;;;;;;;9.15;3.30;;;;;;;;;;5052693;28;20049;-67
2022/05/31 05:16:18;;;;;;;3.83;2.63;;;;;;;;;;5016661;28;20045;-67
2022/05/31 05:18:49;;;;;;;4.22;2.80;;;;;;;;;;5023365;28;20049;-66
2022/05/31 05:21:26;;;;;;;5.10;3.20;;;;;;;;;;5049831;28;20140;-66
2022/05/31 05:23:53;;;;;;;5.78;3.50;;;;;;;;;;5035277;28;20076;-67
2022/05/31 05:26:19;;;;;;;5.57;3.65;;;;;;;;;;5033429;28;20147;-67
2022/05/31 05:31:35;;;;;;;3.22;2.92;;;;;;;;;;5035769;28;20054;-67
2022/05/31 05:34:03;;;;;;;7.30;3.17;;;;;;;;;;5016414;28;20103;-67
2022/05/31 05:36:30;;;;;;;5.95;3.95;;;;;;;;;;5034915;28;20061;-68
2022/05/31 05:39:01;;;;;;;4.35;3.33;;;;;;;;;;5042552;28;20408;-66
2022/05/31 05:41:30;;;;;;;3.17;2.60;;;;;;;;;;5055899;28;20111;-67
2022/05/31 05:43:57;;;;;;;3.75;2.67;;;;;;;;;;5037883;28;20090;-69
2022/05/31 05:46:26;;;;;;;4.28;3.20;;;;;;;;;;5052082;28;20080;-68
2022/05/31 05:48:54;;;;;;;4.65;2.55;;;;;;;;;;5033831;28;20085;-66
2022/05/31 05:51:25;;;;;;;3.40;2.83;;;;;;;;;;5032797;28;20520;-67
2022/05/31 05:53:52;;;;;;;4.70;2.97;;;;;;;;;;5016893;28;20053;-67
2022/05/31 05:56:20;;;;;;;2.72;2.42;;;;;;;;;;5034229;28;20502;-68
2022/05/31 05:58:48;;;;;;;5.25;2.53;;;;;;;;;;5052397;28;20053;-67
2022/05/31 06:01:22;;;;;;;3.30;2.38;;;;;;;;;;5052182;28;20049;-68
2022/05/31 06:03:57;;;;;;;4.07;2.70;;;;;;;;;;5035822;28;20331;-67
2022/05/31 06:06:24;;;;;;;5.97;2.80;;;;;;;;;;5052529;28;20503;-68
2022/05/31 06:08:53;;;;;;;3.60;2.17;;;;;;;;;;5032556;28;20435;-67
2022/05/31 06:11:24;;;;;;;3.05;2.60;;;;;;;;;;5031711;28;20049;-66
2022/05/31 06:14:04;;;;;;;3.15;2.55;;;;;;;;;;5031040;28;20057;-69
2022/05/31 06:16:33;;;;;;;3.22;2.47;;;;;;;;;;5001225;28;20045;-67
2022/05/31 06:19:33;;;;;;;4.07;2.60;;;;;;;;;;5035200;28;20474;-68
2022/05/31 06:22:04;;;;;;;3.92;2.60;;;;;;;;;;5023149;28;20072;-68
2022/05/31 06:24:33;;;;;;;4.28;2.20;;;;;;;;;;5037163;28;20441;-67
2022/05/31 06:27:00;;;;;;;3.78;2.50;;;;;;;;;;5055544;28;21127;-67
2022/05/31 06:29:30;;;;;;;5.97;2.67;;;;;;;;;;5059163;28;20064;-67
2022/05/31 06:31:57;;;;;;;3.45;2.70;;;;;;;;;;5059818;28;20212;-67
2022/05/31 06:34:24;;;;;;;4.28;2.97;;;;;;;;;;5058719;28;20052;-67
2022/05/31 06:37:09;;;;;;;6.97;2.60;;;;;;;;;;5059006;28;20048;-67
2022/05/31 06:39:37;;;;;;;3.45;2.50;;;;;;;;;;5059954;28;20052;-68
2022/05/31 06:42:07;;;;;;;4.97;2.35;;;;;;;;;;5061031;28;20045;-68
2022/05/31 06:44:35;;;;;;;3.30;2.22;;;;;;;;;;5046206;28;20430;-68
2022/05/31 06:47:02;;;;;;;4.63;2.42;;;;;;;;;;5057829;28;20056;-68
2022/05/31 06:49:31;;;;;;;4.13;2.97;;;;;;;;;;5062293;28;20103;-68
2022/05/31 06:57:35;;;;;;;5.97;2.67;;;;;;;;;;5061882;28;20052;-68
2022/05/31 07:00:09;;;;;;;5.70;3.50;;;;;;;;;;5045617;28;20049;-68
2022/05/31 07:02:38;;;;;;;4.55;3.03;;;;;;;;;;5057546;28;20129;-68
2022/05/31 07:05:05;;;;;;;5.20;2.38;;;;;;;;;;5060378;28;20045;-68
2022/05/31 07:07:34;;;;;;;3.40;2.53;;;;;;;;;;5057738;28;20084;-69
2022/05/31 07:10:06;;;;;;;4.50;2.28;;;;;;;;;;5043003;28;20531;-68
2022/05/31 07:12:34;;;;;;;3.15;2.30;;;;;;;;;;5060439;28;20126;-67
2022/05/31 07:15:02;;;;;;;6.03;2.50;;;;;;;;;;5057353;28;20045;-66
2022/05/31 07:17:28;;;;;;;6.25;2.65;;;;;;;;;;5056075;28;20055;-65
2022/05/31 07:19:55;;;;;;;4.22;2.17;;;;;;;;;;5064924;28;20110;-65
2022/05/31 07:22:33;;;;;;;3.97;2.40;;;;;;;;;;5059138;28;20114;-65
2022/05/31 07:24:59;;;;;;;2.53;2.13;;;;;;;;;;5058512;28;20121;-65
2022/05/31 07:27:26;;;;;;;3.40;2.33;;;;;;;;;;5059428;28;20609;-65
2022/05/31 07:29:53;;;;;;;5.00;2.80;;;;;;;;;;5059524;28;20053;-66
2022/05/31 07:32:20;;;;;;;4.90;1.90;;;;;;;;;;5057063;28;20495;-66
2022/05/31 07:35:07;;;;;;;3.75;2.20;;;;;;;;;;5059388;28;20049;-65
2022/05/31 07:37:35;;;;;;;4.82;2.28;;;;;;;;;;5059259;28;21054;-70
2022/05/31 07:40:03;;;;;;;4.70;2.22;;;;;;;;;;5059000;28;20044;-73
2022/05/31 07:42:29;;;;;;;4.07;1.77;;;;;;;;;;5024910;28;20049;-70
2022/05/31 07:44:56;;;;;;;6.63;1.95;;;;;;;;;;5057019;28;20048;-71
2022/05/31 07:47:24;;;;;;;3.00;1.98;;;;;;;;;;5056488;28;20055;-71
2022/05/31 07:49:51;;;;;;;2.13;1.92;;;;;;;;;;5042790;28;20049;-71
2022/05/31 07:52:18;;;;;;;2.22;1.90;;;;;;;;;;5058442;28;20072;-68
2022/05/31 07:54:44;;;;;;;3.70;2.05;;;;;;;;;;5056993;28;20060;-69
2022/05/31 07:58:30;;;;;;;4.03;1.80;;;;;;;;;;5060143;28;20055;-69
2022/05/31 07:59:58;;;;;;;3.50;2.10;;;;;;;;;;5058003;28;20049;-69
2022/05/31 08:02:24;;;;;;;2.20;1.85;;;;;;;;;;5055259;28;20053;-68
2022/05/31 08:04:51;;;;;;;5.75;2.25;;;;;;;;;;5058577;28;20118;-68
2022/05/31 08:07:18;;;;;;;3.33;2.00;;;;;;;;;;5056894;28;20075;-68
2022/05/31 08:09:45;;;;;;;3.53;2.10;;;;;;;;;;5083906;22;20056;-67
2022/05/31 08:12:12;;;;;;;2.78;1.92;;;;;;;;;;5063052;28;20450;-66
2022/05/31 08:14:39;;;;;;;4.13;1.92;;;;;;;;;;5064944;28;20383;-66
2022/05/31 08:17:06;;;;;;;4.32;2.28;;;;;;;;;;5062503;28;20044;-65
2022/05/31 08:19:33;;;;;;;3.63;1.88;;;;;;;;;;5062677;28;20044;-66
2022/05/31 08:22:00;;;;;;;2.90;1.90;;;;;;;;;;5061842;28;20052;-65
2022/05/31 08:24:26;;;;;;;4.05;1.80;;;;;;;;;;5063723;28;20048;-66
2022/05/31 08:27:10;;;;;;;2.30;1.60;;;;;;;;;;5065960;28;20041;-65
2022/05/31 08:29:37;;;;;;;3.25;1.67;;;;;;;;;;5064064;28;20555;-66
2022/05/31 08:32:05;;;;;;;2.78;1.55;;;;;;;;;;5062242;28;20423;-65
2022/05/31 08:34:32;;;;;;;1.63;1.30;;;;;;;;;;5062766;28;20056;-66
2022/05/31 08:36:58;;;;;;;2.42;1.33;;;;;;;;;;5057391;28;20093;-65
2022/05/31 08:39:25;;;;;;;3.55;1.30;;;;;;;;;;5054330;28;20053;-65
2022/05/31 08:41:57;;;;;;;1.98;1.10;;;;;;;;;;5060151;28;20059;-66
2022/05/31 08:44:36;;;;;;;1.40;0.93;;;;;;;;;;5043334;28;20041;-66
2022/05/31 08:47:24;;;;;;;1.10;1.00;;;;;;;;;;5063855;28;20099;-66
2022/05/31 08:53:26;;;;;;;3.28;0.85;;;;;;;;;;5060751;28;20045;-65
2022/05/31 08:59:06;;;;;;;2.88;1.20;;;;;;;;;;5055583;28;20048;-65
2022/05/31 09:01:38;;;;;;;1.85;0.90;;;;;;;;;;5055797;28;20052;-69
2022/05/31 09:04:21;;;;;;;2.65;1.40;;;;;;;;;;5060345;28;20923;-69
2022/05/31 09:06:52;;;;;;;;;;;;;;;;;;5063895;28;20056;-67
2022/05/31 09:09:23;;;;;;;2.50;1.48;;;;;;;;;;5059595;28;19924;-65
2022/05/31 09:11:55;;;;;;;2.80;1.25;;;;;;;;;;5046102;28;20053;-68
2022/05/31 09:14:43;;;;;;;3.08;1.13;;;;;;;;;;5060969;28;20048;-68
2022/05/31 09:17:24;;;;;;;2.80;1.13;;;;;;;;;;5059977;28;20045;-68
2022/05/31 09:19:58;;;;;;;4.05;1.17;;;;;;;;;;5056029;28;20055;-67
2022/05/31 09:22:25;;;;;;;3.35;1.10;;;;;;;;;;5060756;28;20048;-70
2022/05/31 09:24:52;;;;;;;2.45;1.60;;;;;;;;;;5063728;28;20057;-68
2022/05/31 09:27:33;;;;;;;2.40;1.25;;;;;;;;;;5047078;28;20059;-70
2022/05/31 09:30:09;;;;;;;3.05;1.48;;;;;;;;;;5063211;28;20041;-71
2022/05/31 09:33:16;;;;;;;2.53;1.40;;;;;;;;;;5060540;28;20059;-67
2022/05/31 09:36:19;;;;;;;2.22;1.20;;;;;;;;;;5005276;28;20081;-68
2022/05/31 09:39:06;;;;;;;2.65;1.40;;;;;;;;;;5064167;28;20056;-68
2022/05/31 09:41:32;;;;;;;4.53;1.40;;;;;;;;;;5049032;28;20052;-68
2022/05/31 09:44:09;;;;;;;3.67;1.33;;;;;;;;;;5065088;28;20048;-68
2022/05/31 09:47:02;;;;;;;3.17;1.20;;;;;;;;;;5065205;28;20055;-69
2022/05/31 09:49:39;;;;;;;3.10;1.27;;;;;;;;;;5061690;28;20083;-67
2022/05/31 09:52:19;;;;;;;3.63;1.08;;;;;;;;;;5062151;28;20489;-67
2022/05/31 09:58:24;;;;;;;3.65;1.63;;;;;;;;;;5064016;28;20049;-65
2022/05/31 10:01:20;;;;;;;2.08;1.05;;;;;;;;;;5061470;28;20052;-65
2022/05/31 10:03:55;;;;;;;5.35;1.65;;;;;;;;;;5061710;28;20048;-65
2022/05/31 10:06:28;;;;;;;4.95;1.33;;;;;;;;;;5075140;28;20546;-64
2022/05/31 10:08:54;;;;;;;;;;;;;;;;;;5063226;28;20476;-65
2022/05/31 10:11:27;;;;;;;4.15;1.50;;;;;;;;;;5062879;28;19932;-67
2022/05/31 10:13:55;;;;;;;4.68;1.65;;;;;;;;;;5042477;28;20044;-65
2022/05/31 10:16:28;;;;;;;2.22;1.17;;;;;;;;;;5060466;28;20572;-68
2022/05/31 10:19:00;;;;;;;3.17;1.20;;;;;;;;;;5059367;28;20088;-66
2022/05/31 10:21:32;;;;;;;4.47;1.70;;;;;;;;;;5061185;28;20110;-65
2022/05/31 10:24:16;;;;;;;1.50;1.40;;;;;;;;;;5058938;28;20045;-65
2022/05/31 10:26:44;;;;;;;2.00;1.25;;;;;;;;;;5059419;28;20116;-65
2022/05/31 10:29:27;;;;;;;2.35;1.50;;;;;;;;;;5062758;28;20044;-65
2022/05/31 10:31:54;;;;;;;3.08;1.58;;;;;;;;;;5062270;28;20056;-65
2022/05/31 10:34:40;;;;;;;5.05;1.70;;;;;;;;;;5059326;28;20123;-65
2022/05/31 10:37:22;;;;;;;2.83;1.50;;;;;;;;;;5059455;28;20072;-66
2022/05/31 10:40:09;;;;;;;4.60;2.03;;;;;;;;;;5046798;28;20044;-66
2022/05/31 10:42:38;;;;;;;3.22;1.67;;;;;;;;;;5058268;28;20067;-66
2022/05/31 10:45:05;;;;;;;4.28;1.92;;;;;;;;;;5060496;28;20052;-66
2022/05/31 10:47:32;;;;;;;3.00;1.70;;;;;;;;;;5057409;28;20052;-66
2022/05/31 10:49:59;;;;;;;4.03;1.52;;;;;;;;;;5059852;28;20056;-67
2022/05/31 10:52:31;;;;;;;11.65;2.05;;;;;;;;;;5056823;28;20420;-66
2022/05/31 10:55:35;;;;;;;1.88;1.25;;;;;;;;;;5056745;28;20074;-66
2022/05/31 10:58:11;;;;;;;3.38;1.40;;;;;;;;;;5058582;28;20052;-67
2022/05/31 11:00:56;;;;;;;4.93;1.55;;;;;;;;;;5058287;28;20052;-66
2022/05/31 11:03:39;;;;;;;2.70;1.65;;;;;;;;;;5056545;28;20060;-67
2022/05/31 11:06:15;;;;;;;4.75;1.77;;;;;;;;;;5052193;28;20040;-66
2022/05/31 11:11:46;;;;;;;2.40;1.25;;;;;;;;;;5059288;28;20052;-66
2022/05/31 11:14:29;;;;;;;3.50;1.25;;;;;;;;;;5059718;28;20521;-66
2022/05/31 11:17:34;;;;;;;2.28;1.20;;;;;;;;;;5058983;28;20045;-67
2022/05/31 11:20:07;;;;;;;1.85;1.30;;;;;;;;;;5057267;28;20045;-68
2022/05/31 11:23:03;;;;;;;3.78;1.40;;;;;;;;;;5039904;28;20354;-69
2022/05/31 11:25:32;;;;;;;1.35;1.25;;;;;;;;;;5030930;28;20052;-69
2022/05/31 11:28:18;;;;;;;2.20;1.70;;;;;;;;;;5057605;28;20067;-70
2022/05/31 11:31:06;;;;;;;5.63;1.35;;;;;;;;;;5056845;28;20083;-66
2022/05/31 11:33:51;;;;;;;3.42;1.30;;;;;;;;;;5056555;28;20063;-67
2022/05/31 11:36:46;;;;;;;2.78;1.20;;;;;;;;;;5055544;28;20593;-70
2022/05/31 11:39:43;;;;;;;3.28;1.20;;;;;;;;;;5054703;28;20095;-69
2022/05/31 11:42:16;;;;;;;2.55;0.82;;;;;;;;;;5063876;28;20053;-71
2022/05/31 11:45:04;;;;;;;2.83;1.13;;;;;;;;;;5058978;28;20063;-65
2022/05/31 11:47:54;;;;;;;1.20;1.10;;;;;;;;;;5057135;28;20052;-67
2022/05/31 11:50:48;;;;;;;4.38;1.25;;;;;;;;;;5056131;28;20045;-66
2022/05/31 11:53:45;;;;;;;3.03;1.73;;;;;;;;;;5050294;28;20048;-66
2022/05/31 11:56:38;;;;;;;0.80;0.80;;;;;;;;;;5048107;28;20053;-66
2022/05/31 11:59:15;;;;;;;3.67;0.98;;;;;;;;;;5038495;28;20052;-67
2022/05/31 12:01:52;;;;;;;1.80;1.30;;;;;;;;;;5049675;28;20107;-67
2022/05/31 12:04:39;;;;;;;1.15;0.90;;;;;;;;;;5068862;28;20052;-68
2022/05/31 12:07:16;;;;;;;2.22;1.20;;;;;;;;;;5053515;28;20125;-68
2022/05/31 12:10:05;;;;;;;1.98;1.10;;;;;;;;;;5067620;28;20110;-67
2022/05/31 12:12:35;;;;;;;4.72;1.25;;;;;;;;;;5032157;28;20099;-67
2022/05/31 12:15:22;;;;;;;2.25;1.17;;;;;;;;;;5049490;28;20098;-68
2022/05/31 12:18:12;;;;;;;2.17;1.40;;;;;;;;;;5064814;28;20048;-68
2022/05/31 12:20:50;;;;;;;4.03;1.20;;;;;;;;;;5057925;28;20052;-68
2022/05/31 12:23:26;;;;;;;2.65;0.90;;;;;;;;;;5052396;28;20465;-66
2022/05/31 12:25:54;;;;;;;2.45;1.35;;;;;;;;;;5068899;28;20056;-71
2022/05/31 12:28:26;;;;;;;2.00;1.02;;;;;;;;;;5068710;28;20049;-68
2022/05/31 12:30:55;;;;;;;3.70;1.37;;;;;;;;;;5058391;28;20103;-67
2022/05/31 12:33:46;;;;;;;3.25;0.98;;;;;;;;;;5051723;28;20052;-69
2022/05/31 12:36:18;;;;;;;1.55;0.98;;;;;;;;;;5052054;28;20053;-71
2022/05/31 12:39:08;;;;;;;2.63;1.45;;;;;;;;;;5030756;28;20080;-73
2022/05/31 12:41:38;;;;;;;1.55;0.90;;;;;;;;;;5063054;28;20083;-77
2022/05/31 12:44:16;;;;;;;3.85;1.40;;;;;;;;;;5057934;28;20048;-68
2022/05/31 12:46:45;;;;;;;2.28;1.10;;;;;;;;;;5055922;28;20447;-67
2022/05/31 12:49:22;;;;;;;2.70;1.08;;;;;;;;;;5055782;28;20088;-68
2022/05/31 12:54:54;;;;;;;6.45;1.33;;;;;;;;;;5062160;28;20507;-69
2022/05/31 13:00:26;;;;;;;1.58;0.75;;;;;;;;;;5067392;28;20411;-69
2022/05/31 13:02:54;;;;;;;2.85;1.38;;;;;;;;;;5064235;28;20045;-68
2022/05/31 13:05:39;;;;;;;3.70;0.90;;;;;;;;;;5060665;28;20563;-68
2022/05/31 13:08:22;;;;;;;1.58;0.93;;;;;;;;;;5059070;28;20059;-68
2022/05/31 13:19:34;;;;;;;1.50;0.80;;;;;;;;;;5056444;28;20053;-71
2022/05/31 13:22:10;;;;;;;1.33;1.05;;;;;;;;;;5059302;28;20412;-71
2022/05/31 13:24:49;;;;;;;2.60;0.80;;;;;;;;;;5059289;28;20426;-70
2022/05/31 13:27:23;;;;;;;3.42;1.17;;;;;;;;;;5058819;28;20056;-68
2022/05/31 13:30:01;;;;;;;3.30;1.10;;;;;;;;;;5059150;28;20045;-71
2022/05/31 13:32:35;;;;;;;1.00;0.90;;;;;;;;;;5058529;28;20045;-69
2022/05/31 13:35:09;;;;;;;1.85;1.02;;;;;;;;;;5057067;28;20037;-69
2022/05/31 13:38:02;;;;;;;4.90;0.73;;;;;;;;;;5058368;28;20040;-69
2022/05/31 13:40:32;;;;;;;2.40;0.82;;;;;;;;;;5059892;28;20094;-70
2022/05/31 13:43:00;;;;;;;2.78;1.15;;;;;;;;;;5062248;28;20056;-67
2022/05/31 13:45:28;;;;;;;1.48;0.85;;;;;;;;;;5062767;28;20049;-67
2022/05/31 13:48:01;;;;;;;2.33;0.90;;;;;;;;;;5041966;28;20583;-69
2022/05/31 13:50:37;;;;;;;3.97;0.80;;;;;;;;;;5057960;28;20063;-68
2022/05/31 13:53:08;;;;;;;0.95;0.85;;;;;;;;;;5063269;28;20178;-69
2022/05/31 13:55:34;;;;;;;3.03;1.25;;;;;;;;;;5063129;28;20044;-68
2022/05/31 13:58:02;;;;;;;1.63;0.70;;;;;;;;;;5060433;28;20483;-69
2022/05/31 14:00:45;;;;;;;3.45;1.23;;;;;;;;;;5059897;28;20048;-69
2022/05/31 14:03:23;;;;;;;1.30;1.00;;;;;;;;;;5062669;28;20053;-71
2022/05/31 14:06:11;;;;;;;2.25;0.90;;;;;;;;;;5062173;28;20519;-69
2022/05/31 14:08:56;;;;;;;3.83;1.40;;;;;;;;;;5078222;28;20127;-70
2022/05/31 14:11:45;;;;;;;2.58;1.35;;;;;;;;;;5065797;28;20059;-69
2022/05/31 14:14:40;;;;;;;4.05;1.52;;;;;;;;;;5060160;28;20048;-69
2022/05/31 14:17:07;;;;;;;2.40;0.90;;;;;;;;;;5061697;28;20045;-69
2022/05/31 14:19:37;;;;;;;2.13;1.08;;;;;;;;;;5063387;28;20057;-69
2022/05/31 14:22:25;;;;;;;1.95;1.10;;;;;;;;;;5061308;28;20072;-70
2022/05/31 14:24:53;;;;;;;3.63;0.90;;;;;;;;;;5059816;28;20053;-69
2022/05/31 14:27:21;;;;;;;4.65;1.20;;;;;;;;;;5058589;28;20528;-70
2022/05/31 14:29:58;;;;;;;2.05;1.08;;;;;;;;;;5059949;28;20049;-71
2022/05/31 14:32:36;;;;;;;1.35;0.85;;;;;;;;;;5060214;28;20056;-77
2022/05/31 14:35:23;;;;;;;1.13;0.88;;;;;;;;;;5061049;28;20048;-69
2022/05/31 14:37:51;;;;;;;3.35;1.10;;;;;;;;;;5044406;28;20420;-66
2022/05/31 14:40:30;;;;;;;3.55;1.20;;;;;;;;;;5064012;28;20444;-65
2022/05/31 14:43:09;;;;;;;1.98;1.05;;;;;;;;;;5062356;28;20048;-65
2022/05/31 14:45:46;;;;;;;1.88;1.00;;;;;;;;;;5059008;28;20045;-65
2022/05/31 14:48:32;;;;;;;3.65;1.10;;;;;;;;;;5066421;28;20112;-66
2022/05/31 14:51:01;;;;;;;2.55;1.10;;;;;;;;;;5063856;28;20123;-65
2022/05/31 14:53:36;;;;;;;3.55;1.15;;;;;;;;;;5067927;28;20048;-65
2022/05/31 14:56:03;;;;;;;2.13;1.13;;;;;;;;;;5064509;28;20052;-65
2022/05/31 14:58:40;;;;;;;4.30;1.30;;;;;;;;;;5068265;28;20473;-64
2022/05/31 15:01:16;;;;;;;3.35;1.00;;;;;;;;;;5066709;28;20095;-65
2022/05/31 15:04:11;;;;;;;5.70;0.90;;;;;;;;;;5047813;28;20121;-65
2022/05/31 15:06:39;;;;;;;6.82;1.20;;;;;;;;;;5055732;28;20495;-65
2022/05/31 15:09:15;;;;;;;4.93;0.90;;;;;;;;;;5062901;28;20048;-65
2022/05/31 15:19:58;;;;;;;2.25;1.00;;;;;;;;;;5063545;28;20053;-66
2022/05/31 15:22:26;;;;;;;1.67;0.98;;;;;;;;;;5061674;28;20044;-70
2022/05/31 15:24:55;;;;;;;1.58;0.80;;;;;;;;;;5060457;28;20411;-72
2022/05/31 15:27:24;;;;;;;2.20;0.80;;;;;;;;;;5060007;28;20053;-70
2022/05/31 15:29:52;;;;;;;3.05;1.10;;;;;;;;;;5062431;28;20063;-66
2022/05/31 15:32:19;;;;;;;1.73;0.90;;;;;;;;;;5060021;28;20053;-68
2022/05/31 15:34:47;;;;;;;2.25;0.90;;;;;;;;;;5061810;28;20044;-68
2022/05/31 15:37:16;;;;;;;1.67;0.90;;;;;;;;;;5059887;28;20048;-69
2022/05/31 15:39:44;;;;;;;1.45;1.02;;;;;;;;;;5062663;28;20052;-68
2022/05/31 15:42:13;;;;;;;2.33;0.95;;;;;;;;;;5061693;28;20525;-70
2022/05/31 15:44:41;;;;;;;2.25;1.02;;;;;;;;;;5059846;28;20045;-70
2022/05/31 15:47:08;;;;;;;1.67;1.10;;;;;;;;;;5059442;28;20136;-70
2022/05/31 15:49:34;;;;;;;2.28;1.00;;;;;;;;;;5063170;28;20044;-70
2022/05/31 15:52:05;;;;;;;1.95;0.80;;;;;;;;;;5062046;28;20049;-69
2022/05/31 15:54:39;;;;;;;4.00;0.82;;;;;;;;;;5052813;28;20066;-70
2022/05/31 15:57:06;;;;;;;1.65;1.13;;;;;;;;;;5064876;28;20051;-71
2022/05/31 15:59:36;;;;;;;1.92;1.00;;;;;;;;;;5063720;28;20059;-71
2022/05/31 16:02:05;;;;;;;1.10;1.00;;;;;;;;;;5060773;28;20048;-72